ADDS METAR Data INFO
IDs: Format: Raw Decoded Include TAF

Data at: 0210 UTC 20 Sep 2017

KHOU 200153Z 17006KT 10SM FEW030 BKN090 BKN250 28/24 A2990 RMK AO2 SLP127 T02830239
KHOU 200053Z 17006KT 10SM CLR 29/23 A2988 RMK AO2 SLP122 T02890233
KHOU 192353Z 18010KT 10SM SCT035 BKN250 30/22 A2986 RMK AO2 SLP115 T03000222 10344 20300 55002
KHOU 192253Z 14012G18KT 10SM SCT039 BKN250 32/22 A2985 RMK AO2 SLP112 T03170222
KHOU 192153Z 15010G16KT 10SM SCT036 BKN250 33/23 A2986 RMK AO2 SLP114 T03330233
KHOU 192053Z 17012KT 10SM SCT043 SCT050 BKN250 34/23 A2987 RMK AO2 SLP118 T03390233 58024
KHOU 191953Z 15010KT 10SM SCT043 BKN250 34/22 A2989 RMK AO2 SLP127 T03390217
KHOU 191853Z 21010KT 10SM SCT040 BKN250 33/23 A2991 RMK AO2 SLP133 T03330228
KHOU 191753Z 20007KT 10SM SCT035 SCT250 34/23 A2994 RMK AO2 SLP142 T03390233 10339 20256 58012
KHOU 191653Z 20009KT 10SM SCT030 SCT250 32/23 A2996 RMK AO2 SLP149 T03220233
KHOU 191553Z 20006KT 10SM SCT025 SCT250 31/24 A2997 RMK AO2 SLP152 T03110239
KHOU 191453Z 19007KT 10SM SCT015 SCT250 29/25 A2997 RMK AO2 SLP154 T02940250 53008
KHOU 191353Z 17004KT 10SM FEW250 28/24 A2996 RMK AO2 SLP150 T02830244
KHOU 191253Z 18005KT 10SM FEW012 SCT200 SCT300 27/24 A2995 RMK AO2 SLP147 T02670244
KHOU 191153Z 00000KT 8SM FEW200 FEW300 26/24 A2995 RMK AO2 SLP146 70132 T02610244 10261 20256 53005
KHOU 191053Z 16005KT 9SM FEW015 SCT250 26/24 A2994 RMK AO2 SLP143 T02560239
KHOU 190953Z 00000KT 9SM FEW016 26/24 A2994 RMK AO2 SLP143 T02610244
KHOU 190853Z 00000KT 8SM CLR 26/24 A2994 RMK AO2 SLP140 T02610239 51004
KHOU 190753Z 00000KT 10SM SCT250 26/24 A2994 RMK AO2 SLP140 T02610239
KHOU 190653Z 19004KT 10SM FEW015 SCT250 26/24 A2993 RMK AO2 SLP139 T02610239
KHOU 190553Z 13005KT 10SM FEW015 FEW040 SCT250 26/23 A2992 RMK AO2 SLP137 60110 T02560233 10256 20239 403390239 58005
KHOU 190453Z 11003KT 10SM SCT015 SCT250 26/23 A2994 RMK AO2 SLP142 T02560233
KHOU 190353Z 00000KT 10SM FEW015 FEW040 SCT250 25/23 A2994 RMK AO2 SLP142 T02500228
KHOU 190253Z 08003KT 10SM SCT019 SCT046 BKN250 24/22 A2994 RMK AO2 RAE44 SLP143 P0000 60110 T02440222 56007
KHOU 190153Z 07006KT 10SM -RA FEW008 SCT055 SCT120 BKN250 24/22 A2995 RMK AO2 SLP145 TSE21 P0005 T02440222
KHOU 190123Z COR 22011KT 10SM -RA FEW008 SCT030 BKN065 BKN250 24/22 A2994 RMK AO2 LTG DSNT E AND SW TSE21 TS DSPTD P0003 T02390222
KHOU 190053Z 24010KT 4SM +TSRA BR FEW008 BKN022CB OVC035 24/22 A2995 RMK AO2 WSHFT 2355 LTG DSNT SW AND W PRESFR SLP147 OCNL LTGICCG VC SW AND NW TS VC SW AND NW MOV LTL P0105 T02440222
KHOU 190015Z 36013KT 4SM +TSRA BR FEW015 BKN021CB OVC035 24/22 A3000 RMK AO2 WSHFT 2355 LTG DSNT ALQDS PRESRR VIS NW-N 1/2 CONT LTGICCG OHD TS OHD MOV LTL P0030 T02390217
KHOU 182353Z 32014KT 7SM -TSRA FEW017 BKN025CB BKN035 BKN150 OVC250 26/22 A2996 RMK AO2 LTG DSNT ALQDS RAE31B46 SLP150 FRQ LTGICCG VC SW-NE TS VC SW-NE MOV LTL P0009 60022 T02560222 10339 20256 53012
KHOU 182333Z 36009KT 7SM TS FEW017 BKN027CB BKN045 BKN150 OVC250 27/24 A2995 RMK AO2 LTG DSNT ALQDS RAE31 FRQ LTGICCG ALQDS TS ALQDS MOV LTL P0009 T02670239
KHOU 182253Z 34005KT 9SM -TSRA SCT027CB BKN035 BKN110 BKN250 29/25 A2992 RMK AO2 LTG DSNT W-NE RAE00B16 SLP138 VIS N-NE 1 OCNL LTGICCG VC NW AND NE TS VC NW AND NE MOV NE CB DSNT SW P0002 T02890250
KHOU 182153Z 00000KT 8SM -TSRA SCT031CB SCT070 BKN110 BKN250 28/24 A2992 RMK AO2 LTG DSNT W-N RAB2059E16B26 TSB25 SLP136 OCNL LTGICCG VC NE-E TS VC NE-E MOV NE TCU VC SW P0011 T02830244
KHOU 182125Z 21018G25KT 10SM TS SCT020 BKN031CB BKN120 BKN250 31/24 A2992 RMK AO2 LTG DSNT N AND NW RAB2059E16 TSB25 OCNL LTGICCG VC NW TS VC NW MOV NE P0002 T03060244
KHOU 182053Z VRB05KT 10SM FEW020 SCT033TCU BKN110 BKN300 33/24 A2993 RMK AO2 LTG DSNT NW SLP137 TCU VC NE S-W NW 60000 T03330244 58024
KHOU 181953Z 16007KT 10SM FEW030 SCT220 BKN300 33/24 A2995 RMK AO2 LTG DSNT W-NE SLP145 CB DSNT NW-NE T03280244
KHOU 181853Z 19009KT 10SM FEW025 BKN200 BKN300 29/23 A2998 RMK AO2 LTG DSNT NW-NE RAE03 SLP155 CB DSNT NE NW MOV N P0000 T02940233
KHOU 181753Z 17010KT 10SM -RA SCT025 BKN080 BKN250 31/24 A3000 RMK AO2 LTG DSNT NW-NE SLP161 RAE16 P0000 60000 T03110239 10328 20267 58002
KHOU 181744Z 19010G18KT 10SM SCT025 BKN080 BKN250 31/24 A3000 RMK AO2 LTG DSNT N AND NW RAE16 P0000 T03110239
KHOU 181719Z 16007KT 10SM VCTS SCT025 BKN032 OVC055 33/25 A3000 RMK AO2 LTG DSNT S RAE16 TSE13 P0000 T03280250
KHOU 181653Z 24007KT 10SM -RA SCT025 BKN055 BKN250 30/26 A3002 RMK AO2 LTG DSNT S AND SW RAB46 SLP168 P0000 T03000256
KHOU 181553Z 20006KT 10SM SCT020 BKN250 31/24 A3001 RMK AO2 LTG DSNT NE AND E SLP165 VCSH N T03060239
KHOU 181539Z 24004KT 10SM SCT020 SCT250 31/24 A3001 RMK AO2 LTG DSNT NE T03060239
KHOU 181518Z 18005KT 10SM BKN020 BKN100 31/24 A3001 RMK AO2 T03110244
KHOU 181511Z 16007KT 10SM SCT018 32/25 A3001 RMK AO2 T03170250
KHOU 181509Z 17007KT 10SM BKN018 32/25 A3001 RMK AO2 T03170250
KHOU 181453Z 14007KT 10SM SCT020 SCT100 30/24 A3000 RMK AO2 SLP164 T03000244 50005